sensor_id;sensor_type;location;lat;lon;timestamp;pressure;altitude;pressure_sealevel;temperature;humidity
43770;BME280;6597;52.218;9.882;2022-12-18T00:01:00;102237.66;;;-9.52;100.00
43770;BME280;6597;52.218;9.882;2022-12-18T00:03:32;102233.00;;;-9.46;100.00
43770;BME280;6597;52.218;9.882;2022-12-18T00:05:59;102238.63;;;-9.38;100.00
43770;BME280;6597;52.218;9.882;2022-12-18T00:08:26;102229.34;;;-9.38;100.00
43770;BME280;6597;52.218;9.882;2022-12-18T00:10:52;102231.00;;;-9.38;100.00
43770;BME280;6597;52.218;9.882;2022-12-18T00:13:20;102235.00;;;-9.42;100.00
43770;BME280;6597;52.218;9.882;2022-12-18T00:15:47;102237.97;;;-9.48;100.00
43770;BME280;6597;52.218;9.882;2022-12-18T00:18:13;102235.13;;;-9.52;100.00
43770;BME280;6597;52.218;9.882;2022-12-18T00:20:40;102235.78;;;-9.55;100.00
43770;BME280;6597;52.218;9.882;2022-12-18T00:23:07;102245.06;;;-9.55;100.00
43770;BME280;6597;52.218;9.882;2022-12-18T00:25:33;102245.28;;;-9.52;100.00
43770;BME280;6597;52.218;9.882;2022-12-18T00:28:00;102256.53;;;-9.49;100.00
43770;BME280;6597;52.218;9.882;2022-12-18T00:30:28;102254.31;;;-9.44;100.00
43770;BME280;6597;52.218;9.882;2022-12-18T00:32:55;102256.13;;;-9.43;100.00
43770;BME280;6597;52.218;9.882;2022-12-18T00:35:24;102251.56;;;-9.47;100.00
43770;BME280;6597;52.218;9.882;2022-12-18T00:37:51;102251.16;;;-9.53;100.00
43770;BME280;6597;52.218;9.882;2022-12-18T00:40:18;102249.94;;;-9.58;100.00
43770;BME280;6597;52.218;9.882;2022-12-18T00:42:44;102231.31;;;-9.70;100.00
43770;BME280;6597;52.218;9.882;2022-12-18T00:45:24;102255.59;;;-9.62;100.00
43770;BME280;6597;52.218;9.882;2022-12-18T00:47:53;102259.13;;;-9.60;100.00
43770;BME280;6597;52.218;9.882;2022-12-18T00:50:21;102263.78;;;-9.66;100.00
43770;BME280;6597;52.218;9.882;2022-12-18T00:52:47;102273.63;;;-9.71;100.00
43770;BME280;6597;52.218;9.882;2022-12-18T00:55:14;102270.78;;;-9.76;100.00
43770;BME280;6597;52.218;9.882;2022-12-18T00:57:41;102279.91;;;-9.78;100.00
43770;BME280;6597;52.218;9.882;2022-12-18T01:00:10;102268.22;;;-9.76;100.00
43770;BME280;6597;52.218;9.882;2022-12-18T01:02:37;102267.22;;;-9.78;100.00
43770;BME280;6597;52.218;9.882;2022-12-18T01:05:08;102267.47;;;-9.75;100.00
43770;BME280;6597;52.218;9.882;2022-12-18T01:07:34;102259.59;;;-9.78;100.00
43770;BME280;6597;52.218;9.882;2022-12-18T01:10:02;102270.00;;;-9.75;100.00
43770;BME280;6597;52.218;9.882;2022-12-18T01:12:29;102267.56;;;-9.73;100.00
43770;BME280;6597;52.218;9.882;2022-12-18T01:14:55;102276.06;;;-9.73;100.00
43770;BME280;6597;52.218;9.882;2022-12-18T01:17:22;102267.47;;;-9.75;100.00
43770;BME280;6597;52.218;9.882;2022-12-18T01:19:49;102274.72;;;-9.79;100.00
43770;BME280;6597;52.218;9.882;2022-12-18T01:22:17;102279.28;;;-9.87;100.00
43770;BME280;6597;52.218;9.882;2022-12-18T01:24:43;102283.16;;;-9.92;100.00
43770;BME280;6597;52.218;9.882;2022-12-18T01:27:10;102289.56;;;-9.97;100.00
43770;BME280;6597;52.218;9.882;2022-12-18T01:29:38;102279.28;;;-9.98;100.00
43770;BME280;6597;52.218;9.882;2022-12-18T01:32:05;102270.00;;;-9.98;100.00
43770;BME280;6597;52.218;9.882;2022-12-18T01:34:31;102276.88;;;-9.97;100.00
43770;BME280;6597;52.218;9.882;2022-12-18T01:37:03;102276.88;;;-9.97;100.00
43770;BME280;6597;52.218;9.882;2022-12-18T01:39:32;102276.66;;;-10.00;100.00
43770;BME280;6597;52.218;9.882;2022-12-18T01:41:59;102279.41;;;-9.97;100.00
43770;BME280;6597;52.218;9.882;2022-12-18T01:44:53;102279.50;;;-9.95;100.00
43770;BME280;6597;52.218;9.882;2022-12-18T01:47:23;102283.72;;;-9.96;100.00
43770;BME280;6597;52.218;9.882;2022-12-18T01:49:51;102286.03;;;-9.99;100.00
43770;BME280;6597;52.218;9.882;2022-12-18T01:52:18;102290.22;;;-9.99;100.00
43770;BME280;6597;52.218;9.882;2022-12-18T01:54:48;102306.34;;;-9.99;100.00
43770;BME280;6597;52.218;9.882;2022-12-18T01:57:18;102290.34;;;-9.98;100.00
43770;BME280;6597;52.218;9.882;2022-12-18T01:59:49;102281.16;;;-9.96;100.00
43770;BME280;6597;52.218;9.882;2022-12-18T02:02:17;102291.53;;;-9.93;100.00
43770;BME280;6597;52.218;9.882;2022-12-18T02:04:43;102286.56;;;-9.91;100.00
43770;BME280;6597;52.218;9.882;2022-12-18T02:07:16;102290.09;;;-9.89;100.00
43770;BME280;6597;52.218;9.882;2022-12-18T02:09:48;102291.44;;;-9.94;100.00
43770;BME280;6597;52.218;9.882;2022-12-18T02:12:19;102300.38;;;-9.99;100.00
43770;BME280;6597;52.218;9.882;2022-12-18T02:14:53;102298.28;;;-10.05;100.00
43770;BME280;6597;52.218;9.882;2022-12-18T02:17:23;102293.09;;;-10.07;100.00
43770;BME280;6597;52.218;9.882;2022-12-18T02:20:03;102288.66;;;-10.09;100.00
43770;BME280;6597;52.218;9.882;2022-12-18T02:22:39;102286.13;;;-10.09;100.00
43770;BME280;6597;52.218;9.882;2022-12-18T02:25:21;102298.28;;;-10.05;100.00
43770;BME280;6597;52.218;9.882;2022-12-18T02:27:56;102290.56;;;-10.07;100.00
43770;BME280;6597;52.218;9.882;2022-12-18T02:30:26;102291.34;;;-10.08;100.00
43770;BME280;6597;52.218;9.882;2022-12-18T02:32:54;102289.44;;;-10.10;100.00
43770;BME280;6597;52.218;9.882;2022-12-18T02:35:24;102280.94;;;-10.11;100.00
43770;BME280;6597;52.218;9.882;2022-12-18T02:37:55;102283.56;;;-10.09;100.00
43770;BME280;6597;52.218;9.882;2022-12-18T02:40:24;102281.50;;;-10.03;100.00
43770;BME280;6597;52.218;9.882;2022-12-18T02:42:53;102282.59;;;-9.99;100.00
43770;BME280;6597;52.218;9.882;2022-12-18T02:45:20;102274.53;;;-9.94;100.00
43770;BME280;6597;52.218;9.882;2022-12-18T02:47:49;102268.34;;;-9.86;100.00
43770;BME280;6597;52.218;9.882;2022-12-18T02:50:22;102270.53;;;-9.79;100.00
43770;BME280;6597;52.218;9.882;2022-12-18T02:53:06;102273.38;;;-9.62;100.00
43770;BME280;6597;52.218;9.882;2022-12-18T02:55:45;102278.00;;;-9.57;100.00
43770;BME280;6597;52.218;9.882;2022-12-18T02:58:19;102274.81;;;-9.54;100.00
43770;BME280;6597;52.218;9.882;2022-12-18T03:00:54;102268.47;;;-9.48;100.00
43770;BME280;6597;52.218;9.882;2022-12-18T03:03:30;102268.25;;;-9.39;100.00
43770;BME280;6597;52.218;9.882;2022-12-18T03:06:02;102262.59;;;-9.35;100.00
43770;BME280;6597;52.218;9.882;2022-12-18T03:08:34;102267.91;;;-9.32;100.00
43770;BME280;6597;52.218;9.882;2022-12-18T03:11:05;102268.69;;;-9.33;100.00
43770;BME280;6597;52.218;9.882;2022-12-18T03:13:36;102264.28;;;-9.35;100.00
43770;BME280;6597;52.218;9.882;2022-12-18T03:16:06;102267.59;;;-9.36;100.00
43770;BME280;6597;52.218;9.882;2022-12-18T03:18:37;102262.59;;;-9.35;100.00
43770;BME280;6597;52.218;9.882;2022-12-18T03:21:07;102262.91;;;-9.30;100.00
43770;BME280;6597;52.218;9.882;2022-12-18T03:23:40;102263.34;;;-9.24;100.00
43770;BME280;6597;52.218;9.882;2022-12-18T03:26:12;102263.66;;;-9.20;100.00
43770;BME280;6597;52.218;9.882;2022-12-18T03:28:44;102254.22;;;-9.09;100.00
43770;BME280;6597;52.218;9.882;2022-12-18T03:31:12;102268.13;;;-9.04;100.00
43770;BME280;6597;52.218;9.882;2022-12-18T03:33:43;102262.09;;;-8.93;100.00
43770;BME280;6597;52.218;9.882;2022-12-18T03:36:13;102266.91;;;-8.84;100.00
43770;BME280;6597;52.218;9.882;2022-12-18T03:38:40;102258.94;;;-8.77;100.00
43770;BME280;6597;52.218;9.882;2022-12-18T03:41:16;102265.69;;;-8.64;100.00
43770;BME280;6597;52.218;9.882;2022-12-18T03:44:22;102268.38;;;-8.50;100.00
43770;BME280;6597;52.218;9.882;2022-12-18T03:46:57;102254.41;;;-8.43;100.00
43770;BME280;6597;52.218;9.882;2022-12-18T03:49:32;102265.63;;;-8.26;100.00
43770;BME280;6597;52.218;9.882;2022-12-18T03:52:05;102263.22;;;-8.11;100.00
43770;BME280;6597;52.218;9.882;2022-12-18T03:54:33;102255.94;;;-8.05;100.00
43770;BME280;6597;52.218;9.882;2022-12-18T03:57:11;102253.69;;;-8.01;100.00
43770;BME280;6597;52.218;9.882;2022-12-18T03:59:43;102250.16;;;-8.03;100.00
43770;BME280;6597;52.218;9.882;2022-12-18T04:02:12;102247.31;;;-8.07;100.00
43770;BME280;6597;52.218;9.882;2022-12-18T04:04:41;102252.81;;;-8.01;100.00
43770;BME280;6597;52.218;9.882;2022-12-18T04:07:09;102248.97;;;-7.95;100.00
43770;BME280;6597;52.218;9.882;2022-12-18T04:09:38;102252.09;;;-7.86;100.00
43770;BME280;6597;52.218;9.882;2022-12-18T04:12:06;102260.34;;;-7.76;100.00
43770;BME280;6597;52.218;9.882;2022-12-18T04:14:33;102266.00;;;-7.67;100.00
43770;BME280;6597;52.218;9.882;2022-12-18T04:17:03;102266.09;;;-7.66;100.00
43770;BME280;6597;52.218;9.882;2022-12-18T04:19:33;102270.91;;;-7.70;100.00
43770;BME280;6597;52.218;9.882;2022-12-18T04:22:01;102269.06;;;-7.73;100.00
43770;BME280;6597;52.218;9.882;2022-12-18T04:24:33;102258.81;;;-7.46;100.00
43770;BME280;6597;52.218;9.882;2022-12-18T04:27:09;102266.69;;;-7.29;100.00
43770;BME280;6597;52.218;9.882;2022-12-18T04:29:42;102264.41;;;-7.11;100.00
43770;BME280;6597;52.218;9.882;2022-12-18T04:32:10;102260.91;;;-6.98;100.00
43770;BME280;6597;52.218;9.882;2022-12-18T04:34:38;102264.31;;;-6.98;100.00
43770;BME280;6597;52.218;9.882;2022-12-18T04:37:07;102264.84;;;-7.03;100.00
43770;BME280;6597;52.218;9.882;2022-12-18T04:39:33;102262.03;;;-7.08;100.00
43770;BME280;6597;52.218;9.882;2022-12-18T04:42:05;102256.66;;;-7.12;100.00
43770;BME280;6597;52.218;9.882;2022-12-18T04:44:33;102260.19;;;-7.24;100.00
43770;BME280;6597;52.218;9.882;2022-12-18T04:46:59;102249.97;;;-7.38;100.00
43770;BME280;6597;52.218;9.882;2022-12-18T04:49:27;102252.53;;;-7.52;100.00
43770;BME280;6597;52.218;9.882;2022-12-18T04:51:54;102261.97;;;-7.64;100.00
43770;BME280;6597;52.218;9.882;2022-12-18T04:54:20;102257.47;;;-7.81;100.00
43770;BME280;6597;52.218;9.882;2022-12-18T04:56:47;102254.34;;;-7.90;100.00
43770;BME280;6597;52.218;9.882;2022-12-18T04:59:13;102262.41;;;-7.97;100.00
43770;BME280;6597;52.218;9.882;2022-12-18T05:01:40;102253.31;;;-8.07;100.00
43770;BME280;6597;52.218;9.882;2022-12-18T05:04:06;102272.88;;;-8.19;100.00
43770;BME280;6597;52.218;9.882;2022-12-18T05:06:34;102266.50;;;-8.26;100.00
43770;BME280;6597;52.218;9.882;2022-12-18T05:09:01;102271.59;;;-8.26;100.00
43770;BME280;6597;52.218;9.882;2022-12-18T05:11:27;102269.28;;;-8.36;100.00
43770;BME280;6597;52.218;9.882;2022-12-18T05:13:54;102257.91;;;-8.41;100.00
43770;BME280;6597;52.218;9.882;2022-12-18T05:16:20;102269.16;;;-8.51;100.00
43770;BME280;6597;52.218;9.882;2022-12-18T05:18:47;102271.41;;;-8.55;100.00
43770;BME280;6597;52.218;9.882;2022-12-18T05:21:14;102278.63;;;-8.61;100.00
43770;BME280;6597;52.218;9.882;2022-12-18T05:23:42;102281.19;;;-8.61;100.00
43770;BME280;6597;52.218;9.882;2022-12-18T05:26:18;102277.75;;;-8.62;100.00
43770;BME280;6597;52.218;9.882;2022-12-18T05:28:48;102283.53;;;-8.64;100.00
43770;BME280;6597;52.218;9.882;2022-12-18T05:31:15;102283.81;;;-8.73;100.00
43770;BME280;6597;52.218;9.882;2022-12-18T05:33:41;102276.31;;;-8.83;100.00
43770;BME280;6597;52.218;9.882;2022-12-18T05:36:09;102283.38;;;-8.79;100.00
43770;BME280;6597;52.218;9.882;2022-12-18T05:38:38;102286.59;;;-8.82;100.00
43770;BME280;6597;52.218;9.882;2022-12-18T05:41:06;102291.56;;;-8.83;100.00
43770;BME280;6597;52.218;9.882;2022-12-18T05:43:34;102297.25;;;-8.87;100.00
43770;BME280;6597;52.218;9.882;2022-12-18T05:46:04;102296.06;;;-8.92;100.00
43770;BME280;6597;52.218;9.882;2022-12-18T05:48:30;102295.94;;;-8.94;100.00
43770;BME280;6597;52.218;9.882;2022-12-18T05:51:03;102299.16;;;-8.96;100.00
43770;BME280;6597;52.218;9.882;2022-12-18T05:53:30;102304.38;;;-8.95;100.00
43770;BME280;6597;52.218;9.882;2022-12-18T05:56:00;102296.63;;;-8.96;100.00
43770;BME280;6597;52.218;9.882;2022-12-18T05:58:28;102303.94;;;-9.01;100.00
43770;BME280;6597;52.218;9.882;2022-12-18T06:00:55;102309.50;;;-9.06;100.00
43770;BME280;6597;52.218;9.882;2022-12-18T06:03:21;102317.72;;;-9.11;100.00
43770;BME280;6597;52.218;9.882;2022-12-18T06:05:48;102324.31;;;-9.13;100.00
43770;BME280;6597;52.218;9.882;2022-12-18T06:08:14;102318.34;;;-9.13;100.00
43770;BME280;6597;52.218;9.882;2022-12-18T06:10:41;102320.69;;;-9.16;100.00
43770;BME280;6597;52.218;9.882;2022-12-18T06:13:07;102308.22;;;-9.25;100.00
43770;BME280;6597;52.218;9.882;2022-12-18T06:15:37;102317.50;;;-9.25;100.00
43770;BME280;6597;52.218;9.882;2022-12-18T06:18:04;102304.16;;;-9.34;100.00
43770;BME280;6597;52.218;9.882;2022-12-18T06:20:30;102321.19;;;-9.33;100.00
43770;BME280;6597;52.218;9.882;2022-12-18T06:22:57;102316.69;;;-9.37;100.00
43770;BME280;6597;52.218;9.882;2022-12-18T06:25:24;102317.66;;;-9.35;100.00
43770;BME280;6597;52.218;9.882;2022-12-18T06:27:50;102318.75;;;-9.32;100.00
43770;BME280;6597;52.218;9.882;2022-12-18T06:30:17;102316.84;;;-9.23;100.00
43770;BME280;6597;52.218;9.882;2022-12-18T06:32:45;102301.06;;;-9.30;100.00
43770;BME280;6597;52.218;9.882;2022-12-18T06:35:11;102309.09;;;-9.24;100.00
43770;BME280;6597;52.218;9.882;2022-12-18T06:37:38;102312.31;;;-9.27;100.00
43770;BME280;6597;52.218;9.882;2022-12-18T06:40:05;102310.13;;;-9.34;100.00
43770;BME280;6597;52.218;9.882;2022-12-18T06:42:32;102310.25;;;-9.32;100.00
43770;BME280;6597;52.218;9.882;2022-12-18T06:44:59;102311.91;;;-9.33;100.00
43770;BME280;6597;52.218;9.882;2022-12-18T06:47:25;102306.72;;;-9.34;100.00
43770;BME280;6597;52.218;9.882;2022-12-18T06:49:54;102310.59;;;-9.39;100.00
43770;BME280;6597;52.218;9.882;2022-12-18T06:52:20;102323.41;;;-9.38;100.00
43770;BME280;6597;52.218;9.882;2022-12-18T06:54:47;102322.97;;;-9.32;100.00
43770;BME280;6597;52.218;9.882;2022-12-18T06:57:13;102319.13;;;-9.14;100.00
43770;BME280;6597;52.218;9.882;2022-12-18T06:59:40;102317.34;;;-8.79;100.00
43770;BME280;6597;52.218;9.882;2022-12-18T07:02:10;102314.03;;;-8.39;100.00
43770;BME280;6597;52.218;9.882;2022-12-18T07:04:37;102326.91;;;-8.11;100.00
43770;BME280;6597;52.218;9.882;2022-12-18T07:07:05;102317.47;;;-7.86;100.00
43770;BME280;6597;52.218;9.882;2022-12-18T07:09:31;102322.66;;;-7.58;100.00
43770;BME280;6597;52.218;9.882;2022-12-18T07:11:58;102321.09;;;-7.43;100.00
43770;BME280;6597;52.218;9.882;2022-12-18T07:14:25;102324.41;;;-7.31;100.00
43770;BME280;6597;52.218;9.882;2022-12-18T07:16:51;102329.56;;;-7.16;100.00
43770;BME280;6597;52.218;9.882;2022-12-18T07:19:18;102320.38;;;-6.99;100.00
43770;BME280;6597;52.218;9.882;2022-12-18T07:21:44;102332.03;;;-6.90;100.00
43770;BME280;6597;52.218;9.882;2022-12-18T07:24:12;102340.19;;;-6.82;100.00
43770;BME280;6597;52.218;9.882;2022-12-18T07:26:39;102335.94;;;-6.81;100.00
43770;BME280;6597;52.218;9.882;2022-12-18T07:29:06;102336.75;;;-6.82;100.00
43770;BME280;6597;52.218;9.882;2022-12-18T07:31:32;102349.59;;;-6.81;100.00
43770;BME280;6597;52.218;9.882;2022-12-18T07:33:59;102351.91;;;-6.71;100.00
43770;BME280;6597;52.218;9.882;2022-12-18T07:36:25;102348.84;;;-6.65;100.00
43770;BME280;6597;52.218;9.882;2022-12-18T07:38:52;102346.56;;;-6.61;100.00
43770;BME280;6597;52.218;9.882;2022-12-18T07:41:20;102347.00;;;-6.53;100.00
43770;BME280;6597;52.218;9.882;2022-12-18T07:43:47;102348.28;;;-6.46;100.00
43770;BME280;6597;52.218;9.882;2022-12-18T07:46:15;102364.50;;;-6.31;100.00
43770;BME280;6597;52.218;9.882;2022-12-18T07:48:42;102354.63;;;-6.25;100.00
43770;BME280;6597;52.218;9.882;2022-12-18T07:51:12;102354.09;;;-6.19;100.00
43770;BME280;6597;52.218;9.882;2022-12-18T07:53:40;102357.81;;;-6.14;100.00
43770;BME280;6597;52.218;9.882;2022-12-18T07:56:09;102355.69;;;-6.07;100.00
43770;BME280;6597;52.218;9.882;2022-12-18T07:58:37;102354.00;;;-5.91;100.00
43770;BME280;6597;52.218;9.882;2022-12-18T08:01:04;102350.38;;;-5.80;100.00
43770;BME280;6597;52.218;9.882;2022-12-18T08:03:31;102344.50;;;-5.63;99.73
43770;BME280;6597;52.218;9.882;2022-12-18T08:05:59;102343.31;;;-5.53;99.32
43770;BME280;6597;52.218;9.882;2022-12-18T08:08:27;102337.31;;;-5.39;98.45
43770;BME280;6597;52.218;9.882;2022-12-18T08:10:53;102333.53;;;-5.15;97.49
43770;BME280;6597;52.218;9.882;2022-12-18T08:13:20;102335.06;;;-4.86;96.44
43770;BME280;6597;52.218;9.882;2022-12-18T08:15:56;102330.78;;;-4.36;93.97
43770;BME280;6597;52.218;9.882;2022-12-18T08:18:23;102321.84;;;-3.93;90.81
43770;BME280;6597;52.218;9.882;2022-12-18T08:20:50;102322.31;;;-3.84;88.71
43770;BME280;6597;52.218;9.882;2022-12-18T08:23:16;102322.44;;;-3.81;87.72
43770;BME280;6597;52.218;9.882;2022-12-18T08:25:43;102321.72;;;-3.78;88.23
43770;BME280;6597;52.218;9.882;2022-12-18T08:28:10;102316.72;;;-3.75;87.47
43770;BME280;6597;52.218;9.882;2022-12-18T08:30:37;102312.56;;;-3.73;87.93
43770;BME280;6597;52.218;9.882;2022-12-18T08:33:05;102311.88;;;-3.69;87.36
43770;BME280;6597;52.218;9.882;2022-12-18T08:35:35;102309.94;;;-3.37;86.83
43770;BME280;6597;52.218;9.882;2022-12-18T08:38:02;102314.69;;;-2.90;84.62
43770;BME280;6597;52.218;9.882;2022-12-18T08:40:29;102314.06;;;-2.46;82.58
43770;BME280;6597;52.218;9.882;2022-12-18T08:42:55;102305.44;;;-1.85;79.61
43770;BME280;6597;52.218;9.882;2022-12-18T08:45:39;102299.16;;;-1.27;75.67
43770;BME280;6597;52.218;9.882;2022-12-18T08:48:07;102295.31;;;-0.91;73.90
43770;BME280;6597;52.218;9.882;2022-12-18T08:50:34;102292.06;;;-0.37;70.49
43770;BME280;6597;52.218;9.882;2022-12-18T08:53:00;102286.56;;;-0.22;68.28
43770;BME280;6597;52.218;9.882;2022-12-18T08:55:27;102289.91;;;0.01;67.07
43770;BME280;6597;52.218;9.882;2022-12-18T08:57:53;102287.47;;;0.33;65.67
43770;BME280;6597;52.218;9.882;2022-12-18T09:00:20;102294.75;;;1.03;64.49
43770;BME280;6597;52.218;9.882;2022-12-18T09:02:47;102291.50;;;1.41;62.07
43770;BME280;6597;52.218;9.882;2022-12-18T09:05:15;102291.72;;;1.19;61.12
43770;BME280;6597;52.218;9.882;2022-12-18T09:07:41;102291.69;;;0.87;61.87
43770;BME280;6597;52.218;9.882;2022-12-18T09:10:08;102288.66;;;1.01;60.92
43770;BME280;6597;52.218;9.882;2022-12-18T09:12:35;102290.78;;;1.15;60.93
43770;BME280;6597;52.218;9.882;2022-12-18T09:15:01;102293.28;;;1.12;60.32
43770;BME280;6597;52.218;9.882;2022-12-18T09:17:28;102279.50;;;1.45;58.74
43770;BME280;6597;52.218;9.882;2022-12-18T09:19:55;102275.19;;;2.13;57.93
43770;BME280;6597;52.218;9.882;2022-12-18T09:22:23;102280.06;;;2.37;55.99
43770;BME280;6597;52.218;9.882;2022-12-18T09:24:49;102278.44;;;2.40;55.30
43770;BME280;6597;52.218;9.882;2022-12-18T09:27:16;102265.66;;;2.12;55.88
43770;BME280;6597;52.218;9.882;2022-12-18T09:29:42;102273.22;;;2.03;56.43
43770;BME280;6597;52.218;9.882;2022-12-18T09:32:09;102265.81;;;2.18;56.99
43770;BME280;6597;52.218;9.882;2022-12-18T09:34:35;102271.75;;;2.92;55.27
43770;BME280;6597;52.218;9.882;2022-12-18T09:37:02;102273.69;;;3.46;53.37
43770;BME280;6597;52.218;9.882;2022-12-18T09:39:30;102271.38;;;2.74;52.36
43770;BME280;6597;52.218;9.882;2022-12-18T09:41:58;102271.09;;;2.23;54.84
43770;BME280;6597;52.218;9.882;2022-12-18T09:44:27;102274.44;;;1.82;55.50
43770;BME280;6597;52.218;9.882;2022-12-18T09:47:03;102276.69;;;1.69;57.08
43770;BME280;6597;52.218;9.882;2022-12-18T09:49:35;102279.09;;;2.32;56.60
43770;BME280;6597;52.218;9.882;2022-12-18T09:52:10;102291.25;;;2.73;56.40
43770;BME280;6597;52.218;9.882;2022-12-18T09:54:44;102288.53;;;3.08;56.20
43770;BME280;6597;52.218;9.882;2022-12-18T09:57:14;102285.63;;;3.36;54.73
43770;BME280;6597;52.218;9.882;2022-12-18T09:59:42;102295.03;;;3.30;54.35
43770;BME280;6597;52.218;9.882;2022-12-18T10:02:15;102295.94;;;3.32;53.60
43770;BME280;6597;52.218;9.882;2022-12-18T10:04:43;102302.38;;;3.54;54.92
43770;BME280;6597;52.218;9.882;2022-12-18T10:07:17;102296.75;;;3.78;55.63
43770;BME280;6597;52.218;9.882;2022-12-18T10:09:53;102285.09;;;4.05;52.89
43770;BME280;6597;52.218;9.882;2022-12-18T10:12:28;102283.81;;;3.81;50.78
43770;BME280;6597;52.218;9.882;2022-12-18T10:15:02;102293.94;;;3.20;51.24
43770;BME280;6597;52.218;9.882;2022-12-18T10:17:38;102285.56;;;3.33;51.21
43770;BME280;6597;52.218;9.882;2022-12-18T10:20:13;102283.78;;;3.31;51.67
43770;BME280;6597;52.218;9.882;2022-12-18T10:22:48;102284.28;;;3.13;52.25
43770;BME280;6597;52.218;9.882;2022-12-18T10:25:22;102290.69;;;2.88;52.80
43770;BME280;6597;52.218;9.882;2022-12-18T10:27:52;102294.06;;;2.45;53.70
43770;BME280;6597;52.218;9.882;2022-12-18T10:30:22;102289.31;;;2.27;54.03
43770;BME280;6597;52.218;9.882;2022-12-18T10:32:50;102288.19;;;1.80;55.56
43770;BME280;6597;52.218;9.882;2022-12-18T10:35:19;102280.97;;;1.67;55.74
43770;BME280;6597;52.218;9.882;2022-12-18T10:37:59;102280.00;;;1.98;56.53
43770;BME280;6597;52.218;9.882;2022-12-18T10:40:28;102272.44;;;2.05;54.90
43770;BME280;6597;52.218;9.882;2022-12-18T10:43:03;102280.75;;;2.28;54.16
43770;BME280;6597;52.218;9.882;2022-12-18T10:45:31;102282.50;;;2.68;54.66
43770;BME280;6597;52.218;9.882;2022-12-18T10:47:57;102284.22;;;2.68;54.05
43770;BME280;6597;52.218;9.882;2022-12-18T10:50:26;102276.28;;;3.01;55.48
43770;BME280;6597;52.218;9.882;2022-12-18T10:52:57;102266.88;;;3.53;55.30
43770;BME280;6597;52.218;9.882;2022-12-18T10:55:30;102271.06;;;3.94;53.34
43770;BME280;6597;52.218;9.882;2022-12-18T10:58:13;102264.84;;;3.86;52.14
43770;BME280;6597;52.218;9.882;2022-12-18T11:01:01;102260.63;;;3.41;51.95
43770;BME280;6597;52.218;9.882;2022-12-18T11:03:32;102255.84;;;3.18;52.35
43770;BME280;6597;52.218;9.882;2022-12-18T11:06:04;102253.84;;;3.03;52.82
43770;BME280;6597;52.218;9.882;2022-12-18T11:08:31;102250.66;;;2.74;52.56
43770;BME280;6597;52.218;9.882;2022-12-18T11:10:59;102245.34;;;1.93;54.16
43770;BME280;6597;52.218;9.882;2022-12-18T11:13:28;102240.81;;;1.84;55.52
43770;BME280;6597;52.218;9.882;2022-12-18T11:15:55;102233.88;;;1.83;56.75
43770;BME280;6597;52.218;9.882;2022-12-18T11:18:27;102231.44;;;1.89;57.20
43770;BME280;6597;52.218;9.882;2022-12-18T11:20:56;102239.91;;;1.82;56.77
43770;BME280;6597;52.218;9.882;2022-12-18T11:23:24;102246.47;;;1.68;56.86
43770;BME280;6597;52.218;9.882;2022-12-18T11:25:52;102242.78;;;1.60;57.44
43770;BME280;6597;52.218;9.882;2022-12-18T11:28:31;102241.34;;;1.36;56.86
43770;BME280;6597;52.218;9.882;2022-12-18T11:31:19;102253.00;;;1.22;58.67
43770;BME280;6597;52.218;9.882;2022-12-18T11:33:52;102248.34;;;1.09;59.31
43770;BME280;6597;52.218;9.882;2022-12-18T11:36:22;102245.66;;;1.04;59.48
43770;BME280;6597;52.218;9.882;2022-12-18T11:38:50;102245.06;;;0.84;60.37
43770;BME280;6597;52.218;9.882;2022-12-18T11:41:21;102230.69;;;0.64;60.75
43770;BME280;6597;52.218;9.882;2022-12-18T11:44:11;102241.16;;;0.67;61.56
43770;BME280;6597;52.218;9.882;2022-12-18T11:46:46;102237.47;;;0.60;60.54
43770;BME280;6597;52.218;9.882;2022-12-18T11:49:18;102231.44;;;0.60;61.28
43770;BME280;6597;52.218;9.882;2022-12-18T11:51:50;102223.34;;;0.48;60.69
43770;BME280;6597;52.218;9.882;2022-12-18T11:54:17;102216.28;;;0.42;61.08
43770;BME280;6597;52.218;9.882;2022-12-18T11:56:47;102212.75;;;0.39;60.72
43770;BME280;6597;52.218;9.882;2022-12-18T11:59:20;102210.13;;;0.37;61.27
43770;BME280;6597;52.218;9.882;2022-12-18T12:01:54;102202.03;;;0.26;61.83
43770;BME280;6597;52.218;9.882;2022-12-18T12:04:40;102194.00;;;0.17;61.37
43770;BME280;6597;52.218;9.882;2022-12-18T12:07:19;102177.63;;;0.17;62.35
43770;BME280;6597;52.218;9.882;2022-12-18T12:09:56;102171.38;;;0.09;65.04
43770;BME280;6597;52.218;9.882;2022-12-18T12:12:35;102166.81;;;0.00;65.25
43770;BME280;6597;52.218;9.882;2022-12-18T12:15:21;102161.50;;;-0.05;66.07
43770;BME280;6597;52.218;9.882;2022-12-18T12:17:54;102160.47;;;-0.10;66.06
43770;BME280;6597;52.218;9.882;2022-12-18T12:20:28;102162.28;;;-0.07;66.18
43770;BME280;6597;52.218;9.882;2022-12-18T12:23:02;102160.38;;;-0.13;66.78
43770;BME280;6597;52.218;9.882;2022-12-18T12:25:37;102153.47;;;-0.14;67.60
43770;BME280;6597;52.218;9.882;2022-12-18T12:28:15;102156.78;;;-0.18;68.31
43770;BME280;6597;52.218;9.882;2022-12-18T12:30:54;102159.31;;;-0.19;66.32
43770;BME280;6597;52.218;9.882;2022-12-18T12:33:36;102151.34;;;-0.27;65.70
43770;BME280;6597;52.218;9.882;2022-12-18T12:36:13;102152.31;;;-0.23;64.88
43770;BME280;6597;52.218;9.882;2022-12-18T12:38:42;102146.34;;;-0.22;64.06
43770;BME280;6597;52.218;9.882;2022-12-18T12:41:14;102139.59;;;-0.17;64.98
43770;BME280;6597;52.218;9.882;2022-12-18T12:44:04;102142.88;;;-0.23;63.71
43770;BME280;6597;52.218;9.882;2022-12-18T12:46:36;102139.28;;;-0.28;69.74
43770;BME280;6597;52.218;9.882;2022-12-18T12:49:09;102145.72;;;-0.41;72.92
43770;BME280;6597;52.218;9.882;2022-12-18T12:51:40;102135.88;;;-0.54;74.84
43770;BME280;6597;52.218;9.882;2022-12-18T12:54:13;102130.81;;;-0.76;77.08
43770;BME280;6597;52.218;9.882;2022-12-18T12:56:47;102124.34;;;-0.90;78.35
43770;BME280;6597;52.218;9.882;2022-12-18T12:59:20;102112.09;;;-0.98;78.82
43770;BME280;6597;52.218;9.882;2022-12-18T13:01:54;102118.56;;;-1.09;80.11
43770;BME280;6597;52.218;9.882;2022-12-18T13:04:30;102124.19;;;-1.20;80.85
43770;BME280;6597;52.218;9.882;2022-12-18T13:07:04;102122.84;;;-1.33;82.36
43770;BME280;6597;52.218;9.882;2022-12-18T13:12:53;102125.13;;;-1.42;83.36